Time;durP1;ratioP1;P1;durP2;ratioP2;P2;SDS_P1;SDS_P2;PMS_P1;PMS_P2;Temp;Humidity;BMP_temperature;BMP_pressure;BME280_temperature;BME280_humidity;BME280_pressure;Samples;Min_cycle;Max_cycle;Signal;HPM_P1;HPM_P2
2022/04/23 00:00:09;;;;;;;11.10;9.97;;;14.60;74.60;;;;;;4944883;28;20492;-80
2022/04/23 00:02:36;;;;;;;11.50;10.33;;;14.60;73.70;;;;;;4958675;28;20431;-80
2022/04/23 00:05:02;;;;;;;11.10;10.20;;;14.70;73.70;;;;;;4999947;28;20455;-80
2022/04/23 00:07:32;;;;;;;11.23;10.33;;;14.70;73.90;;;;;;5073098;28;20448;-80
2022/04/23 00:09:58;;;;;;;11.23;10.23;;;14.60;74.30;;;;;;5061967;28;20467;-80
2022/04/23 00:12:25;;;;;;;10.90;9.90;;;14.70;74.20;;;;;;5065515;28;20463;-81
2022/04/23 00:14:53;;;;;;;12.23;10.50;;;14.60;74.40;;;;;;5042897;28;20544;-80
2022/04/23 00:17:20;;;;;;;10.50;9.53;;;14.60;75.10;;;;;;5062817;28;20449;-80
2022/04/23 00:19:47;;;;;;;11.70;10.50;;;14.60;74.90;;;;;;5057413;28;22527;-78
2022/04/23 00:22:16;;;;;;;11.20;10.30;;;14.50;75.80;;;;;;5057863;28;20931;-81
2022/04/23 00:24:43;;;;;;;10.90;9.80;;;14.50;76.10;;;;;;5063373;28;20450;-81
2022/04/23 00:27:10;;;;;;;10.80;9.90;;;14.50;76.40;;;;;;5063792;28;21152;-80
2022/04/23 00:29:39;;;;;;;11.10;10.13;;;14.50;76.20;;;;;;5059274;28;20476;-81
2022/04/23 00:32:07;;;;;;;11.20;10.20;;;14.40;77.10;;;;;;5059654;28;20447;-79
2022/04/23 00:34:34;;;;;;;11.23;10.20;;;14.50;77.30;;;;;;5056412;28;20452;-82
2022/04/23 00:37:01;;;;;;;12.37;11.27;;;14.50;76.80;;;;;;5053829;28;20999;-81
2022/04/23 00:39:27;;;;;;;10.80;9.80;;;14.50;77.40;;;;;;5051673;28;20476;-80
2022/04/23 00:41:57;;;;;;;12.30;11.20;;;14.30;77.60;;;;;;5051788;28;20554;-82
2022/04/23 00:44:24;;;;;;;12.63;11.53;;;14.30;78.00;;;;;;5056522;28;20452;-81
2022/04/23 00:46:50;;;;;;;12.07;10.83;;;14.30;78.60;;;;;;5030197;28;20474;-82
2022/04/23 00:49:17;;;;;;;12.23;11.00;;;14.40;78.40;;;;;;5048524;28;20475;-81
2022/04/23 00:51:44;;;;;;;11.53;10.47;;;14.30;78.70;;;;;;5050244;28;20471;-81
2022/04/23 00:54:10;;;;;;;12.20;11.00;;;14.20;79.40;;;;;;5034062;28;20456;-80
2022/04/23 00:56:39;;;;;;;13.00;11.80;;;14.20;80.00;;;;;;5053226;28;20472;-83
2022/04/23 00:59:08;;;;;;;12.30;11.20;;;14.10;80.30;;;;;;5049625;28;20472;-81
2022/04/23 01:01:35;;;;;;;12.87;11.67;;;14.10;80.80;;;;;;5051742;28;20571;-82
2022/04/23 01:04:02;;;;;;;12.50;11.30;;;14.00;81.10;;;;;;5050279;28;20469;-81
2022/04/23 01:06:33;;;;;;;12.83;11.53;;;14.00;81.50;;;;;;5046196;28;20859;-81
2022/04/23 01:09:08;;;;;;;13.67;12.37;;;14.10;81.70;;;;;;5029425;28;20443;-81
2022/04/23 01:11:36;;;;;;;12.00;11.00;;;13.90;81.90;;;;;;5033779;28;21227;-81
2022/04/23 01:14:03;;;;;;;12.97;11.77;;;14.00;82.30;;;;;;5032348;28;22529;-81
2022/04/23 01:16:30;;;;;;;11.63;10.63;;;14.00;82.50;;;;;;5047180;28;20444;-81
2022/04/23 01:18:57;;;;;;;13.70;12.40;;;14.00;83.00;;;;;;5034754;28;20463;-79
2022/04/23 01:21:24;;;;;;;12.10;11.10;;;13.90;82.80;;;;;;5051815;28;20483;-80
2022/04/23 01:23:54;;;;;;;13.40;12.20;;;13.80;83.30;;;;;;5053230;28;20463;-81
2022/04/23 01:26:29;;;;;;;13.00;11.90;;;13.80;84.30;;;;;;5052717;28;20444;-80
2022/04/23 01:28:57;;;;;;;13.23;12.03;;;13.80;85.20;;;;;;5058038;28;20451;-82
2022/04/23 01:31:25;;;;;;;13.10;11.80;;;14.00;85.20;;;;;;5043978;28;20453;-81
2022/04/23 01:33:52;;;;;;;11.83;10.87;;;14.00;84.20;;;;;;5040127;28;20448;-80
2022/04/23 01:36:19;;;;;;;13.27;11.97;;;14.00;84.20;;;;;;5050689;28;20555;-82
2022/04/23 01:38:46;;;;;;;14.60;13.20;;;13.90;84.50;;;;;;5058608;28;20435;-81
2022/04/23 01:41:13;;;;;;;13.40;12.10;;;13.90;84.60;;;;;;5071256;28;20476;-80
2022/04/23 01:43:40;;;;;;;14.17;12.87;;;13.80;85.10;;;;;;5067668;28;20452;-80
2022/04/23 01:46:07;;;;;;;14.80;13.50;;;13.70;85.80;;;;;;5064617;28;20444;-80
2022/04/23 01:48:34;;;;;;;14.43;13.03;;;13.70;86.40;;;;;;5073499;28;20452;-81
2022/04/23 01:51:02;;;;;;;13.97;12.67;;;13.70;86.60;;;;;;5074109;28;20460;-82
2022/04/23 01:53:29;;;;;;;14.80;13.30;;;13.60;86.80;;;;;;5045228;28;20464;-79
2022/04/23 01:55:57;;;;;;;14.50;13.10;;;13.50;87.10;;;;;;5058878;28;20471;-81
2022/04/23 01:58:25;;;;;;;14.13;12.83;;;13.60;87.90;;;;;;5053061;28;20478;-81
2022/04/23 02:00:52;;;;;;;14.47;12.67;;;13.50;87.70;;;;;;5035506;28;20579;-81
2022/04/23 02:03:19;;;;;;;14.60;13.20;;;13.50;88.70;;;;;;5030273;28;20461;-81
2022/04/23 02:05:46;;;;;;;15.20;13.60;;;13.40;89.00;;;;;;5032112;28;20465;-82
2022/04/23 02:08:17;;;;;;;14.00;12.70;;;13.40;89.20;;;;;;5032451;28;21170;-81
2022/04/23 02:10:45;;;;;;;12.90;11.70;;;13.30;89.70;;;;;;5035329;28;20483;-82
2022/04/23 02:13:12;;;;;;;14.47;13.17;;;13.40;90.20;;;;;;5046104;28;20468;-82
2022/04/23 02:15:40;;;;;;;14.30;12.90;;;13.40;90.00;;;;;;5023934;28;20490;-81
2022/04/23 02:18:08;;;;;;;13.70;12.50;;;13.40;89.60;;;;;;5046607;28;20570;-81
2022/04/23 02:20:35;;;;;;;16.00;14.53;;;13.50;89.60;;;;;;5046620;28;20953;-81
2022/04/23 02:23:05;;;;;;;14.97;13.47;;;13.40;89.70;;;;;;5051295;28;20447;-79
2022/04/23 02:25:36;;;;;;;14.27;12.87;;;13.40;90.00;;;;;;5056130;28;20448;-81
2022/04/23 02:28:03;;;;;;;14.77;13.37;;;13.40;90.30;;;;;;5051887;28;20449;-81
2022/04/23 02:30:32;;;;;;;14.67;13.27;;;13.30;90.40;;;;;;5024387;28;21247;-82
2022/04/23 02:32:59;;;;;;;14.90;13.40;;;13.30;90.50;;;;;;5027786;28;20921;-79
2022/04/23 02:35:26;;;;;;;14.80;13.40;;;13.30;90.70;;;;;;5046222;28;20851;-80
2022/04/23 02:37:56;;;;;;;14.13;12.77;;;13.50;90.60;;;;;;5048056;28;20775;-80
2022/04/23 02:40:23;;;;;;;15.60;14.10;;;13.50;90.50;;;;;;5053253;28;20520;-80
2022/04/23 02:42:53;;;;;;;14.83;13.33;;;13.50;90.40;;;;;;5049008;28;20476;-81
2022/04/23 02:45:20;;;;;;;14.37;12.97;;;13.60;90.50;;;;;;5052721;28;20455;-80
2022/04/23 02:47:55;;;;;;;14.90;13.60;;;13.50;90.40;;;;;;5040519;28;20459;-81
2022/04/23 02:50:29;;;;;;;14.90;13.50;;;13.40;90.60;;;;;;5053774;28;20478;-82
2022/04/23 02:52:57;;;;;;;13.53;12.23;;;13.30;90.90;;;;;;5055093;28;20451;-80
2022/04/23 02:55:26;;;;;;;14.90;13.50;;;13.30;91.20;;;;;;5062115;28;21148;-80
2022/04/23 02:57:53;;;;;;;14.13;12.83;;;13.40;91.00;;;;;;5055470;28;20452;-81
2022/04/23 03:00:20;;;;;;;15.60;14.10;;;13.30;90.90;;;;;;5065189;28;20479;-79
2022/04/23 03:02:47;;;;;;;14.60;13.10;;;13.30;90.80;;;;;;5066295;28;20451;-81
2022/04/23 03:05:15;;;;;;;14.10;12.70;;;13.40;90.90;;;;;;5061825;28;20482;-82
2022/04/23 03:07:43;;;;;;;15.83;14.23;;;13.20;91.00;;;;;;5055999;28;20448;-82
2022/04/23 03:10:14;;;;;;;15.13;13.73;;;13.20;91.40;;;;;;5036980;28;20499;-82
2022/04/23 03:12:41;;;;;;;15.23;13.73;;;13.20;91.60;;;;;;5055456;28;20460;-81
2022/04/23 03:15:17;;;;;;;15.53;13.93;;;13.20;91.50;;;;;;5030369;28;20460;-82
2022/04/23 03:17:45;;;;;;;13.90;12.60;;;13.20;91.50;;;;;;5043303;28;20456;-81
2022/04/23 03:20:14;;;;;;;15.03;13.57;;;13.30;91.70;;;;;;5064137;28;20503;-81
2022/04/23 03:22:42;;;;;;;15.10;13.73;;;13.10;91.60;;;;;;5063785;28;20452;-81
2022/04/23 03:25:10;;;;;;;15.13;13.70;;;13.10;91.60;;;;;;5066234;28;20463;-81
2022/04/23 03:27:37;;;;;;;14.47;13.20;;;13.20;91.80;;;;;;5046838;28;20459;-82
2022/04/23 03:30:05;;;;;;;14.03;12.63;;;13.20;91.70;;;;;;5061262;28;20479;-80
2022/04/23 03:32:32;;;;;;;14.57;13.20;;;13.10;91.80;;;;;;5049932;28;20468;-82
2022/04/23 03:34:59;;;;;;;15.13;13.73;;;13.00;91.90;;;;;;5033766;28;20527;-80
2022/04/23 03:37:26;;;;;;;15.77;14.10;;;13.00;92.20;;;;;;5063484;28;21158;-80
2022/04/23 03:39:52;;;;;;;15.93;14.43;;;12.90;92.30;;;;;;5065146;28;20481;-81
2022/04/23 03:42:19;;;;;;;13.23;12.03;;;12.90;92.40;;;;;;5068157;28;20476;-81
2022/04/23 03:44:46;;;;;;;13.87;12.57;;;12.90;92.40;;;;;;5063123;28;20487;-80
2022/04/23 03:47:12;;;;;;;14.87;13.47;;;13.00;92.40;;;;;;5068607;28;20444;-81
2022/04/23 03:49:39;;;;;;;13.90;12.80;;;12.90;92.40;;;;;;5052531;28;20475;-81
2022/04/23 03:52:06;;;;;;;14.93;13.40;;;12.90;92.50;;;;;;5065178;28;21221;-80
2022/04/23 03:54:32;;;;;;;14.83;13.00;;;13.00;92.50;;;;;;5046522;28;20813;-82
2022/04/23 03:56:59;;;;;;;14.23;12.83;;;13.00;92.40;;;;;;5051677;28;20451;-80
2022/04/23 03:59:26;;;;;;;13.93;12.50;;;13.00;92.50;;;;;;5067751;28;20475;-80
2022/04/23 04:01:53;;;;;;;14.40;13.10;;;12.90;92.50;;;;;;5038358;28;20563;-82
2022/04/23 04:04:21;;;;;;;14.80;13.40;;;12.90;92.80;;;;;;5031447;28;20460;-82
2022/04/23 04:06:48;;;;;;;31.37;28.23;;;13.00;92.50;;;;;;5050853;28;21079;-81
2022/04/23 04:09:15;;;;;;;14.03;12.63;;;12.90;92.50;;;;;;5047924;28;20476;-81
2022/04/23 04:14:34;;;;;;;14.30;12.90;;;12.90;92.60;;;;;;5052077;28;20576;-82
2022/04/23 04:17:06;;;;;;;14.53;13.00;;;12.90;92.70;;;;;;5055865;28;20452;-81
2022/04/23 04:19:33;;;;;;;15.67;14.07;;;12.90;92.80;;;;;;5041934;28;20506;-80
2022/04/23 04:22:03;;;;;;;15.33;13.90;;;13.00;93.00;;;;;;5063945;28;20495;-79
2022/04/23 04:24:30;;;;;;;15.97;14.33;;;12.90;93.10;;;;;;5062344;28;20448;-80
2022/04/23 04:26:58;;;;;;;15.40;13.80;;;12.90;93.20;;;;;;5064723;28;20528;-80
2022/04/23 04:29:25;;;;;;;15.70;14.10;;;12.80;93.40;;;;;;5049544;28;20471;-80
2022/04/23 04:31:52;;;;;;;14.90;13.50;;;12.80;93.60;;;;;;5065692;28;20464;-81
2022/04/23 04:34:23;;;;;;;15.47;14.07;;;12.90;93.50;;;;;;5064512;28;20460;-79
2022/04/23 04:36:59;;;;;;;16.13;14.63;;;12.80;93.40;;;;;;5057656;28;20456;-79
2022/04/23 04:39:26;;;;;;;14.00;12.80;;;12.80;93.60;;;;;;5037688;28;20467;-79
2022/04/23 04:41:53;;;;;;;15.30;13.90;;;12.80;93.30;;;;;;5042091;28;20570;-81
2022/04/23 04:44:19;;;;;;;14.87;13.57;;;12.90;93.20;;;;;;5064585;28;20456;-81
2022/04/23 04:46:46;;;;;;;15.57;14.07;;;13.00;93.10;;;;;;5063956;28;20558;-81
2022/04/23 04:49:27;;;;;;;15.77;14.27;;;13.00;93.00;;;;;;5065882;28;20595;-81
2022/04/23 04:51:54;;;;;;;15.83;14.23;;;12.90;93.00;;;;;;5062050;28;20453;-82
2022/04/23 04:54:23;;;;;;;14.43;13.03;;;12.70;93.10;;;;;;5057525;28;20444;-82
2022/04/23 04:56:53;;;;;;;15.53;13.93;;;12.70;93.40;;;;;;5056902;28;20459;-81
2022/04/23 04:59:23;;;;;;;15.10;13.70;;;12.70;93.60;;;;;;5057016;28;20472;-80
2022/04/23 05:01:51;;;;;;;15.00;13.60;;;12.70;93.50;;;;;;5053720;28;20505;-81
2022/04/23 05:04:19;;;;;;;15.70;14.13;;;12.70;93.50;;;;;;5051565;28;20958;-81
2022/04/23 05:06:46;;;;;;;14.90;13.53;;;12.70;93.60;;;;;;5052997;28;20451;-81
2022/04/23 05:09:13;;;;;;;14.83;13.33;;;12.80;93.60;;;;;;5033503;28;22285;-81
2022/04/23 05:11:40;;;;;;;16.30;14.23;;;12.90;93.50;;;;;;5036295;28;20685;-81
2022/04/23 05:14:06;;;;;;;16.40;14.90;;;13.10;92.90;;;;;;5033472;28;20471;-81
2022/04/23 05:16:33;;;;;;;15.67;14.17;;;13.10;92.70;;;;;;5053966;28;20467;-81
2022/04/23 05:19:00;;;;;;;16.17;14.60;;;13.10;92.70;;;;;;5039557;28;20489;-80
2022/04/23 05:21:26;;;;;;;16.43;14.20;;;13.10;92.70;;;;;;5042263;28;20492;-80
2022/04/23 05:23:53;;;;;;;16.33;14.73;;;13.20;92.70;;;;;;5068305;28;20437;-80
2022/04/23 05:26:20;;;;;;;15.73;14.20;;;13.20;92.60;;;;;;5072302;28;20463;-81
2022/04/23 05:28:47;;;;;;;17.73;14.60;;;13.20;92.60;;;;;;5053365;28;20482;-79
2022/04/23 05:31:13;;;;;;;16.40;14.50;;;13.30;92.30;;;;;;5051629;28;20446;-80
2022/04/23 05:33:40;;;;;;;15.67;14.23;;;13.30;92.00;;;;;;5074609;28;20498;-80
2022/04/23 05:36:08;;;;;;;16.17;14.60;;;13.10;92.30;;;;;;5070053;28;20438;-79
2022/04/23 05:38:35;;;;;;;16.13;14.30;;;13.30;92.00;;;;;;5033529;28;20460;-82
2022/04/23 05:41:02;;;;;;;16.67;15.03;;;13.00;92.40;;;;;;5061441;28;20468;-81
2022/04/23 05:43:29;;;;;;;18.37;16.37;;;13.00;92.60;;;;;;5058451;28;20485;-80
2022/04/23 05:46:00;;;;;;;16.83;15.13;;;13.00;92.60;;;;;;5046992;28;20452;-80
2022/04/23 05:48:27;;;;;;;14.77;13.33;;;13.10;92.70;;;;;;5070882;28;20439;-82
2022/04/23 05:50:54;;;;;;;17.83;16.13;;;13.20;92.50;;;;;;5070644;28;20465;-80
2022/04/23 05:53:20;;;;;;;19.00;15.60;;;13.30;92.40;;;;;;5069023;28;20543;-81
2022/04/23 05:55:47;;;;;;;16.80;15.20;;;13.30;92.40;;;;;;5068776;28;20468;-80
2022/04/23 05:58:14;;;;;;;17.80;16.00;;;13.40;92.40;;;;;;5070418;28;20444;-81
2022/04/23 06:00:40;;;;;;;17.63;15.90;;;13.40;92.40;;;;;;5060149;28;20473;-80
2022/04/23 06:03:07;;;;;;;17.07;15.43;;;13.50;92.10;;;;;;5053177;28;20449;-81
2022/04/23 06:05:34;;;;;;;17.73;15.93;;;13.60;91.80;;;;;;5049089;28;20496;-80
2022/04/23 06:08:01;;;;;;;16.23;14.67;;;14.00;91.90;;;;;;5054104;28;20472;-80
2022/04/23 06:10:27;;;;;;;15.93;14.37;;;15.70;90.10;;;;;;5051290;28;20463;-80
2022/04/23 06:12:54;;;;;;;17.07;15.37;;;17.60;82.20;;;;;;5057883;28;20455;-82
2022/04/23 06:15:20;;;;;;;16.00;14.47;;;19.10;74.80;;;;;;5053377;28;20445;-81
2022/04/23 06:17:49;;;;;;;15.27;13.83;;;20.60;67.20;;;;;;5053564;28;20455;-81
2022/04/23 06:20:15;;;;;;;15.73;14.17;;;21.30;62.50;;;;;;5038979;28;20492;-82
2022/04/23 06:22:42;;;;;;;16.13;14.57;;;21.90;59.00;;;;;;5050767;28;20468;-81
2022/04/23 06:25:09;;;;;;;15.47;14.10;;;22.00;58.10;;;;;;5032993;28;20455;-81
2022/04/23 06:27:36;;;;;;;16.83;15.23;;;22.40;56.60;;;;;;5057612;28;20463;-81
2022/04/23 06:30:05;;;;;;;16.80;15.20;;;22.60;55.90;;;;;;5051088;28;20487;-81
2022/04/23 06:32:32;;;;;;;15.50;14.00;;;22.80;54.80;;;;;;5051246;28;20448;-81
2022/04/23 06:34:58;;;;;;;15.60;14.20;;;22.40;54.50;;;;;;5051561;28;20543;-80
2022/04/23 06:37:25;;;;;;;16.07;14.67;;;22.00;55.40;;;;;;5034243;28;20460;-79
2022/04/23 06:39:51;;;;;;;15.17;13.67;;;21.60;55.70;;;;;;5054499;28;20494;-81
2022/04/23 06:42:18;;;;;;;15.87;14.30;;;20.70;56.80;;;;;;5054110;28;20482;-80
2022/04/23 06:44:47;;;;;;;15.67;14.27;;;18.90;59.30;;;;;;5033954;28;20483;-81
2022/04/23 06:47:15;;;;;;;15.40;14.00;;;17.60;64.20;;;;;;5053345;28;20976;-81
2022/04/23 06:49:42;;;;;;;15.03;13.57;;;17.10;67.80;;;;;;5052391;28;20491;-81
2022/04/23 06:52:08;;;;;;;14.33;13.03;;;17.10;70.80;;;;;;5051817;28;20456;-80
2022/04/23 06:54:35;;;;;;;13.67;12.37;;;17.00;70.40;;;;;;5032482;28;20447;-79
2022/04/23 06:57:03;;;;;;;14.23;12.83;;;17.20;70.00;;;;;;5031662;28;20988;-80
2022/04/23 06:59:31;;;;;;;13.40;12.10;;;18.20;68.20;;;;;;5052710;28;20476;-80
2022/04/23 07:02:02;;;;;;;14.07;12.87;;;20.00;63.20;;;;;;5033784;28;20491;-82
2022/04/23 07:04:30;;;;;;;12.80;11.60;;;21.20;59.70;;;;;;5037169;28;21003;-80
2022/04/23 07:06:57;;;;;;;13.10;11.90;;;22.00;56.80;;;;;;5053190;28;20440;-81
2022/04/23 07:09:23;;;;;;;13.57;12.37;;;22.40;56.00;;;;;;5060299;28;20567;-81
2022/04/23 07:11:51;;;;;;;12.43;11.03;;;22.30;55.70;;;;;;5054172;28;20443;-80
2022/04/23 07:14:18;;;;;;;13.47;12.27;;;22.40;54.10;;;;;;5053862;28;20456;-80
2022/04/23 07:16:45;;;;;;;11.97;10.97;;;22.50;54.40;;;;;;5051817;28;20445;-80
2022/04/23 07:19:11;;;;;;;11.20;10.20;;;22.50;53.40;;;;;;5059185;28;20547;-81
2022/04/23 07:21:38;;;;;;;11.50;10.57;;;21.90;54.00;;;;;;5039062;28;20502;-80
2022/04/23 07:24:05;;;;;;;11.27;10.07;;;22.00;54.00;;;;;;5057525;28;20583;-81
2022/04/23 07:26:37;;;;;;;12.70;11.53;;;22.00;54.20;;;;;;5057104;28;20482;-80
2022/04/23 07:29:07;;;;;;;12.37;11.17;;;21.70;54.30;;;;;;5053217;28;20495;-81
2022/04/23 07:31:34;;;;;;;13.83;10.13;;;22.30;53.70;;;;;;5054622;28;20575;-80
2022/04/23 07:39:33;;;;;;;10.70;9.70;;;22.00;52.60;;;;;;5053647;28;20480;-82
2022/04/23 07:42:00;;;;;;;11.33;10.23;;;21.60;53.30;;;;;;5057017;28;20528;-81
2022/04/23 07:44:27;;;;;;;12.37;11.23;;;21.90;53.60;;;;;;5055556;28;20575;-80
2022/04/23 07:46:54;;;;;;;11.00;10.10;;;22.60;52.50;;;;;;5054423;28;20491;-82
2022/04/23 07:49:20;;;;;;;11.17;10.17;;;23.20;51.50;;;;;;5055511;28;20474;-81
2022/04/23 07:51:47;;;;;;;9.90;9.00;;;22.70;50.80;;;;;;5042765;28;20454;-81
2022/04/23 07:54:14;;;;;;;10.90;9.93;;;22.50;51.80;;;;;;5061595;28;20475;-81
2022/04/23 07:56:41;;;;;;;10.90;10.00;;;22.90;51.20;;;;;;5056051;28;20480;-81
2022/04/23 07:59:09;;;;;;;11.67;10.77;;;23.40;50.40;;;;;;5056893;28;20471;-81
2022/04/23 08:01:36;;;;;;;10.50;9.50;;;24.00;49.40;;;;;;5055939;28;20486;-81
2022/04/23 08:04:03;;;;;;;11.27;10.40;;;24.40;48.80;;;;;;5009206;28;20448;-81
2022/04/23 08:06:31;;;;;;;10.57;9.33;;;24.80;47.90;;;;;;5042070;28;20431;-80
2022/04/23 08:08:59;;;;;;;10.50;9.50;;;24.10;47.60;;;;;;5036727;28;20600;-81
2022/04/23 08:11:26;;;;;;;11.27;10.30;;;23.80;48.60;;;;;;5058469;28;20448;-82
2022/04/23 08:13:53;;;;;;;11.03;10.13;;;24.20;48.60;;;;;;5056654;28;20452;-82
2022/04/23 08:16:20;;;;;;;10.73;9.63;;;24.60;47.50;;;;;;5055897;28;20923;-82
2022/04/23 08:18:46;;;;;;;11.63;10.63;;;23.80;48.00;;;;;;5060252;28;20520;-81
2022/04/23 08:21:14;;;;;;;10.70;9.80;;;24.10;48.10;;;;;;5066333;28;20447;-81
2022/04/23 08:23:40;;;;;;;12.13;11.10;;;24.00;48.30;;;;;;5065005;28;20494;-81
2022/04/23 08:26:07;;;;;;;11.00;10.10;;;23.40;48.00;;;;;;5063041;28;20446;-82
2022/04/23 08:31:21;;;;;;;11.23;10.30;;;25.30;46.20;;;;;;5063382;28;20481;-79
2022/04/23 08:34:00;;;;;;;11.10;10.10;;;25.00;46.40;;;;;;5045218;28;20541;-81
2022/04/23 08:36:35;;;;;;;8.67;7.87;;;25.40;45.40;;;;;;5047184;28;20455;-79
2022/04/23 08:39:06;;;;;;;11.13;10.13;;;23.90;46.60;;;;;;5047054;28;20485;-81
2022/04/23 08:41:34;;;;;;;10.93;9.83;;;23.90;47.10;;;;;;5063350;28;20877;-81
2022/04/23 08:44:06;;;;;;;10.53;9.63;;;23.20;47.80;;;;;;5063287;28;20467;-80
2022/04/23 08:46:38;;;;;;;10.33;9.50;;;23.70;47.90;;;;;;5064923;28;20451;-81
2022/04/23 08:49:17;;;;;;;11.27;10.10;;;24.60;47.20;;;;;;5044757;28;20448;-80
2022/04/23 08:51:51;;;;;;;11.10;10.10;;;25.30;45.20;;;;;;5056303;28;20452;-82
2022/04/23 08:54:18;;;;;;;10.70;9.80;;;23.80;45.90;;;;;;5059579;28;20459;-81
2022/04/23 08:56:46;;;;;;;9.87;9.00;;;24.40;46.50;;;;;;5064478;28;20453;-80
2022/04/23 08:59:14;;;;;;;10.17;9.30;;;24.20;46.50;;;;;;5043224;28;20474;-80
2022/04/23 09:01:46;;;;;;;10.97;10.10;;;25.00;46.00;;;;;;5061573;28;20503;-80
2022/04/23 09:04:13;;;;;;;11.07;10.17;;;25.50;44.70;;;;;;5055756;28;20463;-80
2022/04/23 09:06:45;;;;;;;11.10;10.13;;;25.20;44.10;;;;;;5040536;28;20444;-81
2022/04/23 09:09:17;;;;;;;10.83;10.00;;;24.60;44.90;;;;;;5068281;28;20491;-81
2022/04/23 09:11:49;;;;;;;10.37;9.57;;;24.50;45.90;;;;;;5067454;28;20537;-80
2022/04/23 09:14:27;;;;;;;10.70;9.80;;;25.00;45.30;;;;;;5061758;28;20534;-82
2022/04/23 09:25:31;;;;;;;10.60;9.60;;;24.90;44.40;;;;;;5075046;28;20515;-80
2022/04/23 09:28:22;;;;;;;9.83;9.00;;;24.70;44.80;;;;;;5072174;28;20447;-79
2022/04/23 09:30:54;;;;;;;10.23;9.10;;;24.60;45.00;;;;;;5057614;28;20514;-81
2022/04/23 09:33:30;;;;;;;7.80;7.20;;;24.70;44.90;;;;;;5041177;28;20449;-81
2022/04/23 09:36:02;;;;;;;9.17;8.40;;;25.00;44.40;;;;;;5041326;28;20450;-80
2022/04/23 09:38:30;;;;;;;9.50;8.70;;;24.90;44.30;;;;;;5055386;28;20449;-81
2022/04/23 09:41:25;;;;;;;10.80;7.60;;;25.10;44.10;;;;;;5047126;28;20507;-82
2022/04/23 09:44:09;;;;;;;9.40;8.60;;;25.00;44.10;;;;;;5053733;28;20507;-80
2022/04/23 09:46:46;;;;;;;8.90;8.10;;;24.30;44.70;;;;;;5054151;28;20547;-82
2022/04/23 09:49:30;;;;;;;9.00;8.20;;;24.50;44.80;;;;;;5040102;28;22296;-79
2022/04/23 09:52:05;;;;;;;8.50;7.60;;;24.00;44.90;;;;;;5054665;28;20448;-80
2022/04/23 09:54:33;;;;;;;8.43;7.73;;;23.40;46.10;;;;;;5056787;28;20451;-81
2022/04/23 09:57:01;;;;;;;8.83;8.10;;;22.90;46.80;;;;;;5042795;28;20456;-80
2022/04/23 09:59:27;;;;;;;8.70;8.00;;;23.20;46.90;;;;;;5056381;28;20470;-81
2022/04/23 10:01:55;;;;;;;8.40;7.80;;;23.60;46.40;;;;;;5037345;28;20460;-80
2022/04/23 10:04:23;;;;;;;10.27;9.17;;;23.60;46.30;;;;;;5037684;28;20456;-81
2022/04/23 10:06:54;;;;;;;9.57;8.63;;;23.70;45.90;;;;;;5043891;28;20558;-82
2022/04/23 10:09:30;;;;;;;8.67;7.87;;;23.80;45.70;;;;;;5059441;28;20690;-81
2022/04/23 10:12:06;;;;;;;9.27;7.77;;;24.10;45.80;;;;;;5038478;28;20455;-80
2022/04/23 10:14:39;;;;;;;7.90;7.10;;;24.50;45.60;;;;;;5062405;28;20440;-81
2022/04/23 10:17:10;;;;;;;8.93;7.70;;;24.50;44.80;;;;;;5057770;28;20459;-80
2022/04/23 10:19:40;;;;;;;9.17;8.33;;;23.80;45.50;;;;;;5040449;28;20465;-81
2022/04/23 10:22:19;;;;;;;8.23;7.60;;;24.10;45.20;;;;;;5041565;28;20469;-80
2022/04/23 10:25:10;;;;;;;9.70;8.90;;;24.00;45.30;;;;;;5060746;28;20440;-80
2022/04/23 10:27:37;;;;;;;10.23;8.40;;;23.40;45.80;;;;;;5059698;28;20440;-80
2022/04/23 10:30:06;;;;;;;8.00;7.20;;;23.70;46.60;;;;;;5057202;28;20478;-80
2022/04/23 10:32:40;;;;;;;9.43;8.63;;;23.70;45.80;;;;;;5038608;28;20527;-81
2022/04/23 10:35:31;;;;;;;9.50;8.70;;;23.80;46.00;;;;;;5055523;28;20464;-81
2022/04/23 10:37:58;;;;;;;9.37;8.57;;;23.50;45.80;;;;;;5041947;28;20466;-81
2022/04/23 10:40:28;;;;;;;8.20;7.50;;;23.60;45.80;;;;;;5055207;28;20482;-81
2022/04/23 10:43:04;;;;;;;8.47;7.80;;;24.10;45.10;;;;;;5058918;28;20482;-79
2022/04/23 10:45:34;;;;;;;9.60;7.90;;;23.50;45.00;;;;;;5057996;28;20443;-81
2022/04/23 10:48:22;;;;;;;9.63;8.63;;;23.00;45.90;;;;;;5056263;28;20474;-80
2022/04/23 10:51:08;;;;;;;9.77;8.87;;;23.00;46.50;;;;;;5052204;28;20471;-80
2022/04/23 10:53:38;;;;;;;8.70;7.90;;;23.10;46.60;;;;;;5042618;28;20459;-81
2022/04/23 10:56:13;;;;;;;9.90;9.03;;;23.70;46.20;;;;;;5034733;28;20455;-82
2022/04/23 10:58:41;;;;;;;9.47;8.60;;;24.10;45.30;;;;;;5054998;28;21648;-80
2022/04/23 11:01:24;;;;;;;9.40;8.60;;;24.00;45.20;;;;;;5040041;28;20511;-79
2022/04/23 11:03:55;;;;;;;8.37;7.67;;;23.80;45.20;;;;;;5026384;28;20487;-80
2022/04/23 11:12:56;;;;;;;9.23;8.33;;;23.50;46.10;;;;;;5055301;28;20642;-81
2022/04/23 11:15:22;;;;;;;9.03;8.23;;;23.20;45.50;;;;;;5029133;28;20452;-81
2022/04/23 11:17:53;;;;;;;9.30;8.50;;;22.50;46.40;;;;;;5030647;28;20460;-81
2022/04/23 11:20:32;;;;;;;9.20;8.30;;;22.50;46.70;;;;;;5051717;28;20543;-80
2022/04/23 11:23:00;;;;;;;9.80;8.80;;;23.30;46.10;;;;;;5054662;28;20484;-83
2022/04/23 11:25:28;;;;;;;9.63;8.73;;;23.10;46.20;;;;;;5052864;28;20530;-81
2022/04/23 11:28:01;;;;;;;8.07;7.37;;;23.20;46.20;;;;;;5054265;28;20527;-82
2022/04/23 11:30:29;;;;;;;10.23;9.33;;;22.70;46.30;;;;;;5045495;28;20567;-81
2022/04/23 11:33:09;;;;;;;10.40;9.50;;;22.40;47.10;;;;;;5039217;28;20557;-81
2022/04/23 11:35:36;;;;;;;9.43;8.63;;;22.50;47.50;;;;;;5061421;28;20460;-81
2022/04/23 11:38:03;;;;;;;9.00;8.30;;;22.70;46.80;;;;;;5039011;28;20936;-80
2022/04/23 11:40:34;;;;;;;9.27;8.37;;;22.30;47.50;;;;;;5046749;28;20479;-80
2022/04/23 11:43:02;;;;;;;9.50;8.70;;;22.10;47.70;;;;;;5049877;28;20586;-80
2022/04/23 11:45:29;;;;;;;9.13;8.33;;;22.30;47.90;;;;;;5030814;28;20444;-80
2022/04/23 11:47:56;;;;;;;8.47;7.63;;;22.40;47.80;;;;;;5035696;28;20456;-79
2022/04/23 11:50:28;;;;;;;11.67;9.27;;;22.70;47.00;;;;;;5033489;28;20581;-80
2022/04/23 11:53:00;;;;;;;9.50;8.60;;;22.80;46.60;;;;;;5032745;28;20474;-81
2022/04/23 11:55:29;;;;;;;8.47;7.63;;;22.90;46.40;;;;;;5036428;28;20464;-80
2022/04/23 11:58:01;;;;;;;8.50;7.70;;;23.20;46.00;;;;;;5043438;28;20476;-82
2022/04/23 12:00:32;;;;;;;8.30;7.63;;;23.60;45.50;;;;;;5035837;28;20522;-81
2022/04/23 12:02:59;;;;;;;10.27;8.10;;;23.50;45.30;;;;;;5034714;28;20482;-80
2022/04/23 12:05:34;;;;;;;8.87;8.07;;;23.30;45.20;;;;;;5038188;28;20476;-80
2022/04/23 12:08:02;;;;;;;8.40;7.73;;;23.40;45.20;;;;;;5037295;28;20459;-81
2022/04/23 12:10:30;;;;;;;8.87;8.07;;;23.50;45.20;;;;;;5039437;28;20476;-80
2022/04/23 12:13:06;;;;;;;8.20;7.50;;;23.20;45.40;;;;;;5057059;28;20439;-82
2022/04/23 12:15:33;;;;;;;9.20;8.40;;;22.80;46.00;;;;;;5039212;28;20508;-82
2022/04/23 12:18:00;;;;;;;9.70;8.90;;;22.40;46.90;;;;;;5057760;28;20462;-80
2022/04/23 12:20:27;;;;;;;9.03;8.23;;;22.70;47.30;;;;;;5042440;28;20829;-81
2022/04/23 12:23:08;;;;;;;10.47;9.47;;;22.70;47.20;;;;;;5058630;28;20480;-82
2022/04/23 12:25:36;;;;;;;10.83;9.83;;;22.70;47.90;;;;;;5038698;28;20447;-81
2022/04/23 12:42:12;;;;;;;9.97;9.07;;;21.40;49.10;;;;;;5070216;28;20448;-81
2022/04/23 12:44:46;;;;;;;9.30;8.40;;;21.40;49.10;;;;;;5060780;28;20490;-79
2022/04/23 12:47:18;;;;;;;9.00;8.17;;;21.40;48.80;;;;;;5025788;28;20448;-81
2022/04/23 12:49:57;;;;;;;9.50;8.67;;;22.10;48.30;;;;;;5055438;28;20538;-81
2022/04/23 12:52:37;;;;;;;10.13;9.20;;;22.10;47.80;;;;;;5069845;28;20520;-81
2022/04/23 12:55:32;;;;;;;12.30;11.30;;;22.10;48.60;;;;;;5070643;28;20448;-80
2022/04/23 12:58:02;;;;;;;12.43;11.23;;;22.20;48.60;;;;;;5075260;28;20451;-80
2022/04/23 13:00:36;;;;;;;9.90;9.00;;;21.90;48.80;;;;;;5073226;28;20469;-81
2022/04/23 13:05:54;;;;;;;12.03;10.80;;;21.30;49.80;;;;;;5072136;28;20478;-81
2022/04/23 13:11:26;;;;;;;11.53;10.50;;;21.60;49.80;;;;;;5067348;28;20472;-80
2022/04/23 13:13:59;;;;;;;12.60;11.30;;;21.40;49.90;;;;;;5069283;28;20531;-80
2022/04/23 13:16:32;;;;;;;13.03;10.70;;;21.00;50.40;;;;;;5047640;28;20471;-80
2022/04/23 13:19:00;;;;;;;10.83;9.73;;;21.10;50.50;;;;;;5047455;28;22331;-83
2022/04/23 13:21:32;;;;;;;13.23;9.87;;;21.40;50.30;;;;;;5063009;28;20572;-81
2022/04/23 13:24:00;;;;;;;8.83;7.87;;;21.70;49.30;;;;;;5061817;28;20492;-79
2022/04/23 13:26:29;;;;;;;10.00;9.10;;;21.50;48.70;;;;;;5064001;28;20463;-80
2022/04/23 13:28:57;;;;;;;9.77;8.87;;;21.20;49.10;;;;;;5046686;28;20447;-80